sensor_id;sensor_type;location;lat;lon;timestamp;P1;durP1;ratioP1;P2;durP2;ratioP2
10659;SDS011;5378;53.206;13.316;2024-02-28T00:00:35;14.47;;;5.37;;
10659;SDS011;5378;53.206;13.316;2024-02-28T00:03:22;15.63;;;6.03;;
10659;SDS011;5378;53.206;13.316;2024-02-28T00:06:09;18.27;;;5.70;;
10659;SDS011;5378;53.206;13.316;2024-02-28T00:08:56;12.80;;;5.97;;
10659;SDS011;5378;53.206;13.316;2024-02-28T00:11:45;16.27;;;5.70;;
10659;SDS011;5378;53.206;13.316;2024-02-28T00:14:33;16.90;;;6.03;;
10659;SDS011;5378;53.206;13.316;2024-02-28T00:17:20;13.20;;;5.50;;
10659;SDS011;5378;53.206;13.316;2024-02-28T00:20:08;18.13;;;6.27;;
10659;SDS011;5378;53.206;13.316;2024-02-28T00:22:57;14.77;;;6.10;;
10659;SDS011;5378;53.206;13.316;2024-02-28T00:25:44;10.30;;;4.83;;
10659;SDS011;5378;53.206;13.316;2024-02-28T00:28:32;12.43;;;5.20;;
10659;SDS011;5378;53.206;13.316;2024-02-28T00:31:19;14.77;;;6.30;;
10659;SDS011;5378;53.206;13.316;2024-02-28T00:34:07;13.17;;;5.40;;
10659;SDS011;5378;53.206;13.316;2024-02-28T00:36:55;13.13;;;5.23;;
10659;SDS011;5378;53.206;13.316;2024-02-28T00:39:43;15.53;;;6.07;;
10659;SDS011;5378;53.206;13.316;2024-02-28T00:42:31;16.40;;;6.27;;
10659;SDS011;5378;53.206;13.316;2024-02-28T00:45:19;13.77;;;5.47;;
10659;SDS011;5378;53.206;13.316;2024-02-28T00:48:06;10.33;;;5.20;;
10659;SDS011;5378;53.206;13.316;2024-02-28T00:50:53;17.77;;;6.10;;
10659;SDS011;5378;53.206;13.316;2024-02-28T00:53:40;14.03;;;5.60;;
10659;SDS011;5378;53.206;13.316;2024-02-28T00:56:28;17.17;;;6.03;;
10659;SDS011;5378;53.206;13.316;2024-02-28T00:59:15;13.87;;;6.67;;
10659;SDS011;5378;53.206;13.316;2024-02-28T01:02:04;14.53;;;5.93;;
10659;SDS011;5378;53.206;13.316;2024-02-28T01:04:51;22.50;;;6.27;;
10659;SDS011;5378;53.206;13.316;2024-02-28T01:07:38;14.00;;;5.60;;
10659;SDS011;5378;53.206;13.316;2024-02-28T01:10:25;18.30;;;6.60;;
10659;SDS011;5378;53.206;13.316;2024-02-28T01:13:12;14.30;;;5.87;;
10659;SDS011;5378;53.206;13.316;2024-02-28T01:15:59;16.60;;;6.70;;
10659;SDS011;5378;53.206;13.316;2024-02-28T01:18:47;17.00;;;6.30;;
10659;SDS011;5378;53.206;13.316;2024-02-28T01:21:35;16.57;;;5.73;;
10659;SDS011;5378;53.206;13.316;2024-02-28T01:24:22;17.43;;;7.67;;
10659;SDS011;5378;53.206;13.316;2024-02-28T01:27:09;24.70;;;6.37;;
10659;SDS011;5378;53.206;13.316;2024-02-28T01:29:56;14.87;;;6.23;;
10659;SDS011;5378;53.206;13.316;2024-02-28T01:32:44;16.13;;;7.37;;
10659;SDS011;5378;53.206;13.316;2024-02-28T01:35:33;17.43;;;6.37;;
10659;SDS011;5378;53.206;13.316;2024-02-28T01:38:20;14.90;;;6.57;;
10659;SDS011;5378;53.206;13.316;2024-02-28T01:41:07;13.53;;;5.90;;
10659;SDS011;5378;53.206;13.316;2024-02-28T01:43:54;23.47;;;7.10;;
10659;SDS011;5378;53.206;13.316;2024-02-28T01:46:41;18.53;;;6.63;;
10659;SDS011;5378;53.206;13.316;2024-02-28T01:49:28;13.93;;;5.37;;
10659;SDS011;5378;53.206;13.316;2024-02-28T01:52:17;15.30;;;5.70;;
10659;SDS011;5378;53.206;13.316;2024-02-28T01:55:05;16.73;;;6.27;;
10659;SDS011;5378;53.206;13.316;2024-02-28T01:57:52;14.97;;;5.87;;
10659;SDS011;5378;53.206;13.316;2024-02-28T02:00:41;13.73;;;6.60;;
10659;SDS011;5378;53.206;13.316;2024-02-28T02:03:29;14.73;;;5.73;;
10659;SDS011;5378;53.206;13.316;2024-02-28T02:06:16;10.30;;;4.80;;
10659;SDS011;5378;53.206;13.316;2024-02-28T02:09:04;16.50;;;6.60;;
10659;SDS011;5378;53.206;13.316;2024-02-28T02:11:51;15.93;;;5.90;;
10659;SDS011;5378;53.206;13.316;2024-02-28T02:14:38;17.13;;;6.37;;
10659;SDS011;5378;53.206;13.316;2024-02-28T02:17:25;13.80;;;5.53;;
10659;SDS011;5378;53.206;13.316;2024-02-28T02:20:13;14.17;;;6.57;;
10659;SDS011;5378;53.206;13.316;2024-02-28T02:23:03;18.23;;;4.80;;
10659;SDS011;5378;53.206;13.316;2024-02-28T02:25:50;19.80;;;6.33;;
10659;SDS011;5378;53.206;13.316;2024-02-28T02:28:37;11.50;;;4.40;;
10659;SDS011;5378;53.206;13.316;2024-02-28T02:31:24;15.63;;;4.37;;
10659;SDS011;5378;53.206;13.316;2024-02-28T02:34:12;15.37;;;4.50;;
10659;SDS011;5378;53.206;13.316;2024-02-28T02:36:59;9.83;;;4.13;;
10659;SDS011;5378;53.206;13.316;2024-02-28T02:39:47;9.13;;;3.93;;
10659;SDS011;5378;53.206;13.316;2024-02-28T02:42:34;12.60;;;4.10;;
10659;SDS011;5378;53.206;13.316;2024-02-28T02:45:21;10.57;;;4.87;;
10659;SDS011;5378;53.206;13.316;2024-02-28T02:48:08;11.33;;;4.33;;
10659;SDS011;5378;53.206;13.316;2024-02-28T02:50:56;7.80;;;3.53;;
10659;SDS011;5378;53.206;13.316;2024-02-28T02:53:43;13.80;;;5.40;;
10659;SDS011;5378;53.206;13.316;2024-02-28T02:56:31;9.33;;;4.00;;
10659;SDS011;5378;53.206;13.316;2024-02-28T02:59:18;10.53;;;3.90;;
10659;SDS011;5378;53.206;13.316;2024-02-28T03:02:06;15.03;;;5.20;;
10659;SDS011;5378;53.206;13.316;2024-02-28T03:04:54;9.33;;;4.30;;
10659;SDS011;5378;53.206;13.316;2024-02-28T03:07:41;13.77;;;4.40;;
10659;SDS011;5378;53.206;13.316;2024-02-28T03:10:28;11.90;;;5.93;;
10659;SDS011;5378;53.206;13.316;2024-02-28T03:13:16;13.33;;;5.10;;
10659;SDS011;5378;53.206;13.316;2024-02-28T03:16:04;8.10;;;3.67;;
10659;SDS011;5378;53.206;13.316;2024-02-28T03:18:52;12.20;;;5.13;;
10659;SDS011;5378;53.206;13.316;2024-02-28T03:21:41;9.00;;;3.83;;
10659;SDS011;5378;53.206;13.316;2024-02-28T03:24:28;12.30;;;4.00;;
10659;SDS011;5378;53.206;13.316;2024-02-28T03:27:15;10.23;;;4.20;;
10659;SDS011;5378;53.206;13.316;2024-02-28T03:30:04;11.90;;;4.13;;
10659;SDS011;5378;53.206;13.316;2024-02-28T03:32:52;10.37;;;4.20;;
10659;SDS011;5378;53.206;13.316;2024-02-28T03:35:40;10.03;;;4.20;;
10659;SDS011;5378;53.206;13.316;2024-02-28T03:38:27;9.57;;;4.13;;
10659;SDS011;5378;53.206;13.316;2024-02-28T03:41:14;12.37;;;4.47;;
10659;SDS011;5378;53.206;13.316;2024-02-28T03:44:01;12.30;;;5.10;;
10659;SDS011;5378;53.206;13.316;2024-02-28T03:46:50;9.03;;;3.63;;
10659;SDS011;5378;53.206;13.316;2024-02-28T03:49:36;10.07;;;4.50;;
10659;SDS011;5378;53.206;13.316;2024-02-28T03:52:23;12.53;;;4.30;;
10659;SDS011;5378;53.206;13.316;2024-02-28T03:55:10;8.73;;;3.83;;
10659;SDS011;5378;53.206;13.316;2024-02-28T03:57:57;12.17;;;4.77;;
10659;SDS011;5378;53.206;13.316;2024-02-28T04:00:44;9.10;;;4.47;;
10659;SDS011;5378;53.206;13.316;2024-02-28T04:03:33;7.53;;;3.40;;
10659;SDS011;5378;53.206;13.316;2024-02-28T04:06:21;8.87;;;3.97;;
10659;SDS011;5378;53.206;13.316;2024-02-28T04:09:07;10.00;;;3.93;;
10659;SDS011;5378;53.206;13.316;2024-02-28T04:11:54;7.23;;;4.00;;
10659;SDS011;5378;53.206;13.316;2024-02-28T04:14:41;8.13;;;3.07;;
10659;SDS011;5378;53.206;13.316;2024-02-28T04:17:29;13.17;;;4.03;;
10659;SDS011;5378;53.206;13.316;2024-02-28T04:20:17;10.17;;;4.80;;
10659;SDS011;5378;53.206;13.316;2024-02-28T04:23:04;10.83;;;4.00;;
10659;SDS011;5378;53.206;13.316;2024-02-28T04:25:51;8.47;;;3.63;;
10659;SDS011;5378;53.206;13.316;2024-02-28T04:28:38;10.10;;;3.73;;
10659;SDS011;5378;53.206;13.316;2024-02-28T04:31:25;9.43;;;3.80;;
10659;SDS011;5378;53.206;13.316;2024-02-28T04:34:13;11.67;;;3.90;;
10659;SDS011;5378;53.206;13.316;2024-02-28T04:37:01;12.00;;;4.30;;
10659;SDS011;5378;53.206;13.316;2024-02-28T04:39:48;13.67;;;4.17;;
10659;SDS011;5378;53.206;13.316;2024-02-28T04:42:35;11.20;;;4.83;;
10659;SDS011;5378;53.206;13.316;2024-02-28T04:45:23;11.57;;;3.57;;
10659;SDS011;5378;53.206;13.316;2024-02-28T04:48:10;9.00;;;3.60;;
10659;SDS011;5378;53.206;13.316;2024-02-28T04:50:59;9.07;;;4.00;;
10659;SDS011;5378;53.206;13.316;2024-02-28T04:53:48;9.00;;;3.80;;
10659;SDS011;5378;53.206;13.316;2024-02-28T04:56:39;10.60;;;3.27;;
10659;SDS011;5378;53.206;13.316;2024-02-28T04:59:26;13.03;;;3.40;;
10659;SDS011;5378;53.206;13.316;2024-02-28T05:02:13;8.20;;;3.10;;
10659;SDS011;5378;53.206;13.316;2024-02-28T05:05:00;13.10;;;3.47;;
10659;SDS011;5378;53.206;13.316;2024-02-28T05:07:48;11.00;;;3.40;;
10659;SDS011;5378;53.206;13.316;2024-02-28T05:10:36;7.53;;;2.60;;
10659;SDS011;5378;53.206;13.316;2024-02-28T05:13:24;10.03;;;3.07;;
10659;SDS011;5378;53.206;13.316;2024-02-28T05:16:12;11.10;;;3.93;;
10659;SDS011;5378;53.206;13.316;2024-02-28T05:19:00;7.37;;;2.93;;
10659;SDS011;5378;53.206;13.316;2024-02-28T05:21:47;12.10;;;3.60;;
10659;SDS011;5378;53.206;13.316;2024-02-28T05:24:34;5.57;;;2.90;;
10659;SDS011;5378;53.206;13.316;2024-02-28T05:27:23;9.17;;;3.57;;
10659;SDS011;5378;53.206;13.316;2024-02-28T05:30:10;10.30;;;3.90;;
10659;SDS011;5378;53.206;13.316;2024-02-28T05:32:58;6.87;;;3.33;;
10659;SDS011;5378;53.206;13.316;2024-02-28T05:35:45;12.80;;;3.93;;
10659;SDS011;5378;53.206;13.316;2024-02-28T05:38:32;12.10;;;3.50;;
10659;SDS011;5378;53.206;13.316;2024-02-28T05:41:20;5.63;;;3.50;;
10659;SDS011;5378;53.206;13.316;2024-02-28T05:44:09;9.73;;;3.30;;
10659;SDS011;5378;53.206;13.316;2024-02-28T05:46:56;10.40;;;3.87;;
10659;SDS011;5378;53.206;13.316;2024-02-28T05:49:43;12.90;;;4.60;;
10659;SDS011;5378;53.206;13.316;2024-02-28T05:52:30;10.63;;;4.00;;
10659;SDS011;5378;53.206;13.316;2024-02-28T05:55:17;5.70;;;2.63;;
10659;SDS011;5378;53.206;13.316;2024-02-28T05:58:05;4.87;;;2.67;;
10659;SDS011;5378;53.206;13.316;2024-02-28T06:00:53;6.30;;;2.93;;
10659;SDS011;5378;53.206;13.316;2024-02-28T06:03:40;12.00;;;2.80;;
10659;SDS011;5378;53.206;13.316;2024-02-28T06:06:28;9.40;;;3.60;;
10659;SDS011;5378;53.206;13.316;2024-02-28T06:09:15;7.97;;;3.50;;
10659;SDS011;5378;53.206;13.316;2024-02-28T06:12:02;5.73;;;3.40;;
10659;SDS011;5378;53.206;13.316;2024-02-28T06:14:49;4.77;;;2.53;;
10659;SDS011;5378;53.206;13.316;2024-02-28T06:17:37;6.63;;;2.53;;
10659;SDS011;5378;53.206;13.316;2024-02-28T06:20:25;7.83;;;2.10;;
10659;SDS011;5378;53.206;13.316;2024-02-28T06:23:14;5.37;;;2.37;;
10659;SDS011;5378;53.206;13.316;2024-02-28T06:26:04;5.40;;;2.43;;
10659;SDS011;5378;53.206;13.316;2024-02-28T06:28:51;5.63;;;2.20;;
10659;SDS011;5378;53.206;13.316;2024-02-28T06:31:39;5.77;;;3.43;;
10659;SDS011;5378;53.206;13.316;2024-02-28T06:34:27;7.47;;;3.50;;
10659;SDS011;5378;53.206;13.316;2024-02-28T06:37:15;6.13;;;3.23;;
10659;SDS011;5378;53.206;13.316;2024-02-28T06:40:02;6.20;;;2.80;;
10659;SDS011;5378;53.206;13.316;2024-02-28T06:42:50;8.90;;;3.37;;
10659;SDS011;5378;53.206;13.316;2024-02-28T06:45:37;9.80;;;3.43;;
10659;SDS011;5378;53.206;13.316;2024-02-28T06:48:24;7.40;;;2.57;;
10659;SDS011;5378;53.206;13.316;2024-02-28T06:51:13;5.70;;;3.17;;
10659;SDS011;5378;53.206;13.316;2024-02-28T06:54:02;8.23;;;3.53;;
10659;SDS011;5378;53.206;13.316;2024-02-28T06:56:50;6.33;;;2.73;;
10659;SDS011;5378;53.206;13.316;2024-02-28T06:59:37;7.47;;;3.30;;
10659;SDS011;5378;53.206;13.316;2024-02-28T07:02:24;6.27;;;3.10;;
10659;SDS011;5378;53.206;13.316;2024-02-28T07:05:12;7.13;;;3.00;;
10659;SDS011;5378;53.206;13.316;2024-02-28T07:08:01;13.13;;;3.40;;
10659;SDS011;5378;53.206;13.316;2024-02-28T07:10:48;5.77;;;3.10;;
10659;SDS011;5378;53.206;13.316;2024-02-28T07:13:39;5.43;;;2.53;;
10659;SDS011;5378;53.206;13.316;2024-02-28T07:16:26;4.83;;;2.30;;
10659;SDS011;5378;53.206;13.316;2024-02-28T07:19:13;7.87;;;3.60;;
10659;SDS011;5378;53.206;13.316;2024-02-28T07:22:00;7.87;;;3.60;;
10659;SDS011;5378;53.206;13.316;2024-02-28T07:24:49;8.20;;;4.20;;
10659;SDS011;5378;53.206;13.316;2024-02-28T07:27:36;8.60;;;3.67;;
10659;SDS011;5378;53.206;13.316;2024-02-28T07:30:23;6.10;;;2.87;;
10659;SDS011;5378;53.206;13.316;2024-02-28T07:33:10;7.10;;;3.57;;
10659;SDS011;5378;53.206;13.316;2024-02-28T07:35:57;9.77;;;4.10;;
10659;SDS011;5378;53.206;13.316;2024-02-28T07:38:46;5.80;;;3.03;;
10659;SDS011;5378;53.206;13.316;2024-02-28T07:41:34;7.30;;;3.20;;
10659;SDS011;5378;53.206;13.316;2024-02-28T07:44:21;7.07;;;2.93;;
10659;SDS011;5378;53.206;13.316;2024-02-28T07:47:09;9.33;;;3.50;;
10659;SDS011;5378;53.206;13.316;2024-02-28T07:49:56;9.70;;;3.87;;
10659;SDS011;5378;53.206;13.316;2024-02-28T07:52:43;5.87;;;3.17;;
10659;SDS011;5378;53.206;13.316;2024-02-28T07:55:30;8.27;;;3.70;;
10659;SDS011;5378;53.206;13.316;2024-02-28T07:58:20;8.67;;;4.23;;
10659;SDS011;5378;53.206;13.316;2024-02-28T08:01:06;11.87;;;3.67;;
10659;SDS011;5378;53.206;13.316;2024-02-28T08:03:54;9.63;;;3.73;;
10659;SDS011;5378;53.206;13.316;2024-02-28T08:06:41;10.10;;;3.90;;
10659;SDS011;5378;53.206;13.316;2024-02-28T08:09:28;10.07;;;4.23;;
10659;SDS011;5378;53.206;13.316;2024-02-28T08:12:15;12.50;;;4.73;;
10659;SDS011;5378;53.206;13.316;2024-02-28T08:15:04;10.63;;;4.43;;
10659;SDS011;5378;53.206;13.316;2024-02-28T08:17:52;6.30;;;3.63;;
10659;SDS011;5378;53.206;13.316;2024-02-28T08:20:39;12.00;;;5.23;;
10659;SDS011;5378;53.206;13.316;2024-02-28T08:23:29;8.23;;;4.47;;
10659;SDS011;5378;53.206;13.316;2024-02-28T08:26:16;13.53;;;4.73;;
10659;SDS011;5378;53.206;13.316;2024-02-28T08:29:03;9.53;;;4.23;;
10659;SDS011;5378;53.206;13.316;2024-02-28T08:31:51;12.13;;;4.40;;
10659;SDS011;5378;53.206;13.316;2024-02-28T08:34:38;11.37;;;5.13;;
10659;SDS011;5378;53.206;13.316;2024-02-28T08:37:25;7.90;;;4.30;;
10659;SDS011;5378;53.206;13.316;2024-02-28T08:40:14;8.53;;;4.10;;
10659;SDS011;5378;53.206;13.316;2024-02-28T08:43:01;8.20;;;3.80;;
10659;SDS011;5378;53.206;13.316;2024-02-28T08:45:48;7.40;;;3.87;;
10659;SDS011;5378;53.206;13.316;2024-02-28T08:48:38;9.07;;;4.30;;
10659;SDS011;5378;53.206;13.316;2024-02-28T08:51:26;11.73;;;4.63;;
10659;SDS011;5378;53.206;13.316;2024-02-28T08:54:13;12.93;;;4.80;;
10659;SDS011;5378;53.206;13.316;2024-02-28T08:57:00;13.87;;;5.37;;
10659;SDS011;5378;53.206;13.316;2024-02-28T08:59:48;8.37;;;4.23;;
10659;SDS011;5378;53.206;13.316;2024-02-28T09:02:38;9.67;;;4.53;;
10659;SDS011;5378;53.206;13.316;2024-02-28T09:05:26;13.77;;;5.40;;
10659;SDS011;5378;53.206;13.316;2024-02-28T09:08:13;10.00;;;5.03;;
10659;SDS011;5378;53.206;13.316;2024-02-28T09:11:00;8.13;;;4.07;;
10659;SDS011;5378;53.206;13.316;2024-02-28T09:13:48;8.93;;;4.03;;
10659;SDS011;5378;53.206;13.316;2024-02-28T09:16:35;8.17;;;4.00;;
10659;SDS011;5378;53.206;13.316;2024-02-28T09:19:23;9.43;;;4.70;;
10659;SDS011;5378;53.206;13.316;2024-02-28T09:22:11;7.63;;;3.93;;
10659;SDS011;5378;53.206;13.316;2024-02-28T09:24:58;8.50;;;4.30;;
10659;SDS011;5378;53.206;13.316;2024-02-28T09:27:45;12.93;;;4.50;;
10659;SDS011;5378;53.206;13.316;2024-02-28T09:30:32;9.10;;;4.40;;
10659;SDS011;5378;53.206;13.316;2024-02-28T09:33:20;8.27;;;4.00;;
10659;SDS011;5378;53.206;13.316;2024-02-28T09:36:07;7.93;;;3.70;;
10659;SDS011;5378;53.206;13.316;2024-02-28T09:38:56;8.53;;;3.50;;
10659;SDS011;5378;53.206;13.316;2024-02-28T09:41:43;9.13;;;4.27;;
10659;SDS011;5378;53.206;13.316;2024-02-28T09:44:35;10.07;;;4.00;;
10659;SDS011;5378;53.206;13.316;2024-02-28T09:47:24;8.03;;;4.43;;
10659;SDS011;5378;53.206;13.316;2024-02-28T09:50:11;9.17;;;3.60;;
10659;SDS011;5378;53.206;13.316;2024-02-28T09:52:59;5.97;;;3.33;;
10659;SDS011;5378;53.206;13.316;2024-02-28T09:55:51;10.67;;;3.93;;
10659;SDS011;5378;53.206;13.316;2024-02-28T09:58:38;11.00;;;4.03;;
10659;SDS011;5378;53.206;13.316;2024-02-28T10:01:27;11.93;;;4.10;;
10659;SDS011;5378;53.206;13.316;2024-02-28T10:04:16;9.27;;;5.03;;
10659;SDS011;5378;53.206;13.316;2024-02-28T10:07:11;15.03;;;5.60;;
10659;SDS011;5378;53.206;13.316;2024-02-28T10:09:59;13.33;;;5.23;;
10659;SDS011;5378;53.206;13.316;2024-02-28T10:12:47;10.07;;;4.30;;
10659;SDS011;5378;53.206;13.316;2024-02-28T10:15:34;8.50;;;3.90;;
10659;SDS011;5378;53.206;13.316;2024-02-28T10:18:21;12.33;;;5.90;;
10659;SDS011;5378;53.206;13.316;2024-02-28T10:21:08;20.47;;;7.63;;
10659;SDS011;5378;53.206;13.316;2024-02-28T10:23:57;19.80;;;8.47;;
10659;SDS011;5378;53.206;13.316;2024-02-28T10:26:46;16.07;;;6.63;;
10659;SDS011;5378;53.206;13.316;2024-02-28T10:29:42;12.87;;;5.80;;
10659;SDS011;5378;53.206;13.316;2024-02-28T10:32:30;16.43;;;5.50;;
10659;SDS011;5378;53.206;13.316;2024-02-28T10:35:19;14.73;;;5.77;;
10659;SDS011;5378;53.206;13.316;2024-02-28T10:38:11;14.07;;;5.20;;
10659;SDS011;5378;53.206;13.316;2024-02-28T10:40:59;8.43;;;4.63;;
10659;SDS011;5378;53.206;13.316;2024-02-28T10:43:47;7.70;;;3.67;;
10659;SDS011;5378;53.206;13.316;2024-02-28T10:46:38;8.20;;;3.50;;
10659;SDS011;5378;53.206;13.316;2024-02-28T10:49:25;7.00;;;3.43;;
10659;SDS011;5378;53.206;13.316;2024-02-28T10:52:13;6.10;;;3.23;;
10659;SDS011;5378;53.206;13.316;2024-02-28T10:55:03;8.17;;;2.90;;
10659;SDS011;5378;53.206;13.316;2024-02-28T10:57:57;5.37;;;3.43;;
10659;SDS011;5378;53.206;13.316;2024-02-28T11:00:48;7.63;;;3.43;;
10659;SDS011;5378;53.206;13.316;2024-02-28T11:03:38;10.67;;;4.70;;
10659;SDS011;5378;53.206;13.316;2024-02-28T11:06:25;10.53;;;3.83;;
10659;SDS011;5378;53.206;13.316;2024-02-28T11:09:18;7.40;;;3.50;;
10659;SDS011;5378;53.206;13.316;2024-02-28T11:12:06;14.03;;;4.77;;
10659;SDS011;5378;53.206;13.316;2024-02-28T11:15:15;13.67;;;2.90;;
10659;SDS011;5378;53.206;13.316;2024-02-28T11:18:07;8.77;;;4.53;;
10659;SDS011;5378;53.206;13.316;2024-02-28T11:20:56;8.10;;;3.37;;
10659;SDS011;5378;53.206;13.316;2024-02-28T11:23:45;8.83;;;3.70;;
10659;SDS011;5378;53.206;13.316;2024-02-28T11:26:33;6.10;;;3.10;;
10659;SDS011;5378;53.206;13.316;2024-02-28T11:29:21;12.13;;;5.03;;
10659;SDS011;5378;53.206;13.316;2024-02-28T11:32:10;16.40;;;4.33;;
10659;SDS011;5378;53.206;13.316;2024-02-28T11:35:00;11.27;;;4.77;;
10659;SDS011;5378;53.206;13.316;2024-02-28T11:37:48;11.53;;;4.70;;
10659;SDS011;5378;53.206;13.316;2024-02-28T11:40:47;7.50;;;2.93;;
10659;SDS011;5378;53.206;13.316;2024-02-28T11:43:35;10.27;;;3.17;;
10659;SDS011;5378;53.206;13.316;2024-02-28T11:46:27;7.73;;;3.33;;
10659;SDS011;5378;53.206;13.316;2024-02-28T11:49:15;10.10;;;4.07;;
10659;SDS011;5378;53.206;13.316;2024-02-28T11:52:03;11.17;;;4.60;;
10659;SDS011;5378;53.206;13.316;2024-02-28T11:54:52;7.30;;;3.07;;
10659;SDS011;5378;53.206;13.316;2024-02-28T11:57:39;13.93;;;3.80;;
10659;SDS011;5378;53.206;13.316;2024-02-28T12:00:26;12.70;;;3.67;;
10659;SDS011;5378;53.206;13.316;2024-02-28T12:03:13;8.70;;;4.10;;
10659;SDS011;5378;53.206;13.316;2024-02-28T12:06:00;8.80;;;3.20;;
10659;SDS011;5378;53.206;13.316;2024-02-28T12:08:47;7.10;;;3.70;;
10659;SDS011;5378;53.206;13.316;2024-02-28T12:11:35;9.70;;;4.03;;
10659;SDS011;5378;53.206;13.316;2024-02-28T12:14:23;7.40;;;3.57;;
10659;SDS011;5378;53.206;13.316;2024-02-28T12:17:10;12.20;;;4.00;;
10659;SDS011;5378;53.206;13.316;2024-02-28T12:19:58;10.10;;;3.40;;
10659;SDS011;5378;53.206;13.316;2024-02-28T12:22:46;8.20;;;3.90;;
10659;SDS011;5378;53.206;13.316;2024-02-28T12:25:34;7.47;;;3.07;;
10659;SDS011;5378;53.206;13.316;2024-02-28T12:28:23;6.33;;;3.40;;
10659;SDS011;5378;53.206;13.316;2024-02-28T12:31:10;9.50;;;3.70;;
10659;SDS011;5378;53.206;13.316;2024-02-28T12:33:58;9.23;;;4.30;;
10659;SDS011;5378;53.206;13.316;2024-02-28T12:36:46;8.67;;;3.80;;
10659;SDS011;5378;53.206;13.316;2024-02-28T12:39:32;10.80;;;4.33;;
10659;SDS011;5378;53.206;13.316;2024-02-28T12:42:20;6.23;;;2.93;;
10659;SDS011;5378;53.206;13.316;2024-02-28T12:45:09;11.00;;;4.80;;
10659;SDS011;5378;53.206;13.316;2024-02-28T12:47:56;13.90;;;4.57;;
10659;SDS011;5378;53.206;13.316;2024-02-28T12:50:44;19.37;;;5.73;;
10659;SDS011;5378;53.206;13.316;2024-02-28T12:53:31;9.50;;;4.37;;
10659;SDS011;5378;53.206;13.316;2024-02-28T12:56:18;7.93;;;3.43;;
10659;SDS011;5378;53.206;13.316;2024-02-28T12:59:05;13.90;;;4.80;;
10659;SDS011;5378;53.206;13.316;2024-02-28T13:01:55;8.23;;;3.93;;
10659;SDS011;5378;53.206;13.316;2024-02-28T13:04:42;10.93;;;4.03;;
10659;SDS011;5378;53.206;13.316;2024-02-28T13:07:29;11.63;;;5.07;;
10659;SDS011;5378;53.206;13.316;2024-02-28T13:10:16;10.60;;;4.10;;
10659;SDS011;5378;53.206;13.316;2024-02-28T13:13:03;12.53;;;4.67;;
10659;SDS011;5378;53.206;13.316;2024-02-28T13:15:51;7.70;;;3.83;;
10659;SDS011;5378;53.206;13.316;2024-02-28T13:18:40;11.83;;;4.33;;
10659;SDS011;5378;53.206;13.316;2024-02-28T13:21:27;9.57;;;4.00;;
10659;SDS011;5378;53.206;13.316;2024-02-28T13:24:14;8.63;;;3.80;;
10659;SDS011;5378;53.206;13.316;2024-02-28T13:27:02;10.83;;;4.70;;
10659;SDS011;5378;53.206;13.316;2024-02-28T13:29:50;11.03;;;4.53;;
10659;SDS011;5378;53.206;13.316;2024-02-28T13:32:37;9.70;;;4.33;;
10659;SDS011;5378;53.206;13.316;2024-02-28T13:35:25;13.83;;;5.77;;
10659;SDS011;5378;53.206;13.316;2024-02-28T13:38:12;17.43;;;7.37;;
10659;SDS011;5378;53.206;13.316;2024-02-28T13:40:59;8.60;;;4.10;;
10659;SDS011;5378;53.206;13.316;2024-02-28T13:43:46;10.57;;;3.40;;
10659;SDS011;5378;53.206;13.316;2024-02-28T13:46:34;14.03;;;4.80;;
10659;SDS011;5378;53.206;13.316;2024-02-28T13:49:21;7.70;;;3.40;;
10659;SDS011;5378;53.206;13.316;2024-02-28T13:52:09;8.90;;;4.13;;
10659;SDS011;5378;53.206;13.316;2024-02-28T13:54:57;12.00;;;5.33;;
10659;SDS011;5378;53.206;13.316;2024-02-28T13:57:44;14.50;;;5.50;;
10659;SDS011;5378;53.206;13.316;2024-02-28T14:00:31;11.67;;;4.83;;
10659;SDS011;5378;53.206;13.316;2024-02-28T14:03:20;9.30;;;4.03;;
10659;SDS011;5378;53.206;13.316;2024-02-28T14:06:09;13.33;;;4.30;;
10659;SDS011;5378;53.206;13.316;2024-02-28T14:08:57;69.80;;;7.90;;
10659;SDS011;5378;53.206;13.316;2024-02-28T14:11:44;15.43;;;5.10;;
10659;SDS011;5378;53.206;13.316;2024-02-28T14:14:31;10.83;;;3.90;;
10659;SDS011;5378;53.206;13.316;2024-02-28T14:17:19;11.40;;;4.60;;
10659;SDS011;5378;53.206;13.316;2024-02-28T14:20:06;11.70;;;5.17;;
10659;SDS011;5378;53.206;13.316;2024-02-28T14:22:54;16.13;;;4.53;;
10659;SDS011;5378;53.206;13.316;2024-02-28T14:25:45;8.17;;;3.93;;
10659;SDS011;5378;53.206;13.316;2024-02-28T14:28:32;10.13;;;4.10;;
10659;SDS011;5378;53.206;13.316;2024-02-28T14:31:19;10.80;;;4.20;;
10659;SDS011;5378;53.206;13.316;2024-02-28T14:34:06;11.17;;;4.00;;
10659;SDS011;5378;53.206;13.316;2024-02-28T14:36:53;12.87;;;5.17;;
10659;SDS011;5378;53.206;13.316;2024-02-28T14:39:41;7.40;;;4.00;;
10659;SDS011;5378;53.206;13.316;2024-02-28T14:42:29;9.10;;;4.40;;
10659;SDS011;5378;53.206;13.316;2024-02-28T14:45:17;8.87;;;4.80;;
10659;SDS011;5378;53.206;13.316;2024-02-28T14:48:04;13.80;;;4.80;;
10659;SDS011;5378;53.206;13.316;2024-02-28T14:50:52;8.27;;;4.23;;
10659;SDS011;5378;53.206;13.316;2024-02-28T14:53:40;8.87;;;4.10;;
10659;SDS011;5378;53.206;13.316;2024-02-28T14:56:27;12.37;;;4.77;;
10659;SDS011;5378;53.206;13.316;2024-02-28T14:59:15;15.87;;;5.10;;
10659;SDS011;5378;53.206;13.316;2024-02-28T15:02:02;15.97;;;5.40;;
10659;SDS011;5378;53.206;13.316;2024-02-28T15:04:50;13.80;;;6.33;;
10659;SDS011;5378;53.206;13.316;2024-02-28T15:07:37;9.33;;;4.77;;
10659;SDS011;5378;53.206;13.316;2024-02-28T15:10:24;13.03;;;6.10;;
10659;SDS011;5378;53.206;13.316;2024-02-28T15:13:11;16.20;;;6.20;;
10659;SDS011;5378;53.206;13.316;2024-02-28T15:16:01;26.87;;;10.60;;
10659;SDS011;5378;53.206;13.316;2024-02-28T15:18:48;23.93;;;8.50;;
10659;SDS011;5378;53.206;13.316;2024-02-28T15:21:35;13.00;;;6.37;;
10659;SDS011;5378;53.206;13.316;2024-02-28T15:24:22;18.13;;;5.43;;
10659;SDS011;5378;53.206;13.316;2024-02-28T15:27:10;17.40;;;6.13;;
10659;SDS011;5378;53.206;13.316;2024-02-28T15:29:57;19.07;;;7.10;;
10659;SDS011;5378;53.206;13.316;2024-02-28T15:32:46;14.60;;;6.50;;
10659;SDS011;5378;53.206;13.316;2024-02-28T15:35:33;13.73;;;4.87;;
10659;SDS011;5378;53.206;13.316;2024-02-28T15:38:21;16.37;;;6.30;;
10659;SDS011;5378;53.206;13.316;2024-02-28T15:41:09;10.90;;;5.93;;
10659;SDS011;5378;53.206;13.316;2024-02-28T15:43:56;12.50;;;5.83;;
10659;SDS011;5378;53.206;13.316;2024-02-28T15:46:43;16.33;;;5.70;;
10659;SDS011;5378;53.206;13.316;2024-02-28T15:49:31;18.07;;;6.07;;
10659;SDS011;5378;53.206;13.316;2024-02-28T15:52:20;11.77;;;5.47;;
10659;SDS011;5378;53.206;13.316;2024-02-28T15:55:07;12.17;;;4.90;;
10659;SDS011;5378;53.206;13.316;2024-02-28T15:57:56;8.20;;;4.20;;
10659;SDS011;5378;53.206;13.316;2024-02-28T16:00:44;12.20;;;6.03;;
10659;SDS011;5378;53.206;13.316;2024-02-28T16:03:32;12.77;;;5.40;;
10659;SDS011;5378;53.206;13.316;2024-02-28T16:06:21;20.40;;;6.97;;
10659;SDS011;5378;53.206;13.316;2024-02-28T16:09:12;12.90;;;5.97;;
10659;SDS011;5378;53.206;13.316;2024-02-28T16:12:00;14.80;;;5.53;;
10659;SDS011;5378;53.206;13.316;2024-02-28T16:14:48;13.23;;;5.17;;
10659;SDS011;5378;53.206;13.316;2024-02-28T16:17:35;15.73;;;5.97;;
10659;SDS011;5378;53.206;13.316;2024-02-28T16:20:22;11.90;;;5.27;;
10659;SDS011;5378;53.206;13.316;2024-02-28T16:23:11;12.50;;;5.30;;
10659;SDS011;5378;53.206;13.316;2024-02-28T16:25:58;20.23;;;5.60;;
10659;SDS011;5378;53.206;13.316;2024-02-28T16:28:45;13.33;;;5.33;;
10659;SDS011;5378;53.206;13.316;2024-02-28T16:31:32;14.93;;;5.50;;
10659;SDS011;5378;53.206;13.316;2024-02-28T16:34:19;12.90;;;5.73;;
10659;SDS011;5378;53.206;13.316;2024-02-28T16:37:06;14.27;;;5.97;;
10659;SDS011;5378;53.206;13.316;2024-02-28T16:39:55;12.17;;;5.40;;
10659;SDS011;5378;53.206;13.316;2024-02-28T16:42:42;14.83;;;5.10;;